NCAR-RAP Real-Time Weather Data

Output produced by METARs form (08 May 2021  16:35 UTC)
found at http://weather.rap.ucar.edu/surface/
 
KBHM 081553Z 18004KT 10SM BKN110 OVC250 19/06 A3018 RMK AO2 SLP216 T01940061
KBHM 081453Z 20004KT 10SM FEW110 BKN250 21/07 A3018 RMK AO2 SLP214 T02060072 50009
KBHM 081353Z 00000KT 10SM BKN110 BKN250 18/09 A3018 RMK AO2 SLP216 T01830089
KBHM 081253Z 00000KT 10SM BKN120 BKN250 14/08 A3017 RMK AO2 SLP214 T01440083
KBHM 081153Z 00000KT 10SM SCT120 BKN250 12/08 A3015 RMK AO2 SLP205 T01170083 10117 20089 53011
KBHM 081053Z 00000KT 10SM BKN120 11/07 A3011 RMK AO2 SLP193 T01110072
KBHM 080953Z 00000KT 10SM BKN090 OVC120 10/07 A3013 RMK AO2 SLP200 T01000067
KBHM 080853Z 00000KT 10SM SCT150 09/06 A3012 RMK AO2 SLP194 T00940061 56008
KBHM 080753Z 00000KT 10SM SCT150 09/07 A3012 RMK AO2 SLP194 T00940067
KBHM 080653Z 00000KT 10SM CLR 10/07 A3013 RMK AO2 SLP201 T01000067
KBHM 080553Z 00000KT 10SM CLR 11/07 A3014 RMK AO2 SLP203 T01060067 10189 20100 402170094 50004
KBHM 080453Z 00000KT 10SM CLR 11/07 A3014 RMK AO2 SLP204 T01110067
KBHM 080353Z 00000KT 10SM CLR 12/07 A3015 RMK AO2 SLP206 T01170067
KBHM 080253Z 12003KT 10SM CLR 12/07 A3013 RMK AO2 SLP199 T01220067 53001
KBHM 080153Z 00000KT 10SM CLR 14/07 A3012 RMK AO2 SLP196 T01390067
KBHM 080053Z 05003KT 10SM CLR 14/07 A3012 RMK AO2 SLP195 T01440072
KBHM 072353Z 34005KT 10SM CLR 19/03 A3012 RMK AO2 SLP197 T01890033 10217 20189 56005
KBHM 072253Z 33006KT 10SM CLR 21/04 A3013 RMK AO2 SLP199 T02060039
KBHM 072153Z VRB05KT 10SM CLR 21/02 A3013 RMK AO2 SLP198 T02060022
KBHM 072053Z VRB04KT 10SM CLR 22/04 A3014 RMK AO2 SLP202 T02170044 56019
KBHM 071953Z 02011KT 10SM CLR 21/04 A3015 RMK AO2 SLP207 T02110039
KBHM 071853Z 35006KT 10SM FEW060 20/04 A3018 RMK AO2 SLP214 T02000044
KBHM 071753Z 01010G15KT 10SM FEW060 19/04 A3020 RMK AO2 SLP222 T01940044 10194 20111 58010
KBHM 071653Z 36009G19KT 10SM FEW060 19/04 A3022 RMK AO2 SLP228 T01890044
KBHM 071553Z 03013G18KT 10SM CLR 18/03 A3023 RMK AO2 SLP233 T01780028
KBHM 071453Z 36007KT 10SM CLR 17/06 A3023 RMK AO2 SLP232 T01670056 51023
KBHM 071353Z 36009KT 10SM CLR 14/07 A3021 RMK AO2 SLP228 T01440072
KBHM 071253Z 35009KT 10SM CLR 12/08 A3019 RMK AO2 SLP220 T01220083
KBHM 071153Z 34003KT 10SM FEW005 11/09 A3016 RMK AO2 SLP209 T01110089 10117 20094 53018
KBHM 071146Z 00000KT 10SM FEW005 11/09 A3016 RMK AO2 T01060089
KBHM 071053Z 01003KT 10SM FEW050 09/08 A3013 RMK AO2 SLP200 T00940078
KBHM 070953Z 27003KT 10SM CLR 10/08 A3012 RMK AO2 SLP195 T01000083
KBHM 070853Z 11003KT 10SM CLR 10/08 A3011 RMK AO2 SLP191 T01000078 55000
KBHM 070753Z 00000KT 10SM CLR 10/08 A3010 RMK AO2 SLP190 T01000083
KBHM 070653Z 00000KT 10SM SCT250 12/09 A3010 RMK AO2 SLP188 T01170094
KBHM 070553Z 00000KT 10SM SCT250 12/09 A3011 RMK AO2 SLP191 60000 T01170094 10211 20106 402330094 58005
KBHM 070453Z 00000KT 10SM FEW250 12/10 A3011 RMK AO2 SLP193 T01220100
KBHM 070353Z 00000KT 10SM FEW250 12/10 A3012 RMK AO2 SLP195 T01220100
KBHM 070253Z 00000KT 10SM SCT120 14/10 A3012 RMK AO2 RAE0156 SLP197 P0000 60000 T01440100 50023
KBHM 070153Z 01004KT 10SM -RA BKN065 OVC080 15/10 A3013 RMK AO2 PK WND 33033/0108 WSHFT 0100 RAB40 SLP199 P0000 T01500100
KBHM 070120Z 34019G30KT 10SM OVC080 17/08 A3014 RMK AO2 PK WND 33033/0108 WSHFT 0100 PRESRR T01670083
KBHM 070053Z 28008KT 10SM SCT100 19/06 A3008 RMK AO2 SLP183 T01940061
KBHM 062353Z 28007KT 10SM FEW100 22/06 A3006 RMK AO2 SLP173 T02170056 10233 20211 56009
KBHM 062253Z 29009KT 10SM CLR 23/05 A3006 RMK AO2 SLP174 T02280050
KBHM 062153Z 28007KT 10SM CLR 23/06 A3007 RMK AO2 SLP177 T02280056
KBHM 062053Z 33006KT 10SM CLR 23/05 A3008 RMK AO2 SLP182 T02280050 56020
KBHM 061953Z 34007KT 10SM CLR 23/05 A3010 RMK AO2 SLP189 T02280050
KBHM 061853Z 33010KT 10SM FEW150 22/07 A3012 RMK AO2 SLP194 T02220067
KBHM 061753Z 01005KT 10SM FEW150 21/07 A3014 RMK AO2 SLP202 T02110067 10211 20111 58015
KBHM 061653Z 32008KT 10SM FEW150 20/08 A3017 RMK AO2 SLP213 T02000083